createdAt,value
2019-05-17T00:00:39.332Z,99238.61
2019-05-17T00:03:09.322Z,99233.16
2019-05-17T00:08:40.294Z,99224.81
2019-05-17T00:14:33.682Z,99221.17
2019-05-17T00:17:06.631Z,99221.72
2019-05-17T00:19:37.159Z,99214.50
2019-05-17T00:22:07.536Z,99208.50
2019-05-17T00:24:39.983Z,99208.09
2019-05-17T00:27:41.466Z,99201.80
2019-05-17T00:30:01.727Z,99202.03
2019-05-17T00:32:31.689Z,99196.45
2019-05-17T00:35:01.822Z,99195.81
2019-05-17T00:37:50.534Z,99190.36
2019-05-17T00:43:22.972Z,99181.17
2019-05-17T00:46:03.615Z,99174.79
2019-05-17T00:48:37.222Z,99182.00
2019-05-17T00:51:09.921Z,99180.06
2019-05-17T00:53:40.637Z,99186.22
2019-05-17T00:56:29.712Z,99177.25
2019-05-17T00:59:02.181Z,99181.50
2019-05-17T01:01:51.150Z,99177.47
2019-05-17T01:04:40.241Z,99178.49
2019-05-17T01:07:28.890Z,99178.08
2019-05-17T01:09:58.974Z,99170.99
2019-05-17T01:12:51.725Z,99173.77
2019-05-17T01:15:40.783Z,99166.02
2019-05-17T01:18:12.742Z,99161.80
2019-05-17T01:20:51.827Z,99166.34
2019-05-17T01:23:43.515Z,99157.78
2019-05-17T01:26:13.526Z,99158.70
2019-05-17T01:28:46.750Z,99159.53
2019-05-17T01:31:17.928Z,99153.05
2019-05-17T01:34:07.483Z,99153.25
2019-05-17T01:36:39.490Z,99143.35
2019-05-17T01:39:17.706Z,99144.47
2019-05-17T01:41:42.088Z,99141.88
2019-05-17T01:44:12.153Z,99140.22
2019-05-17T01:46:42.247Z,99135.17
2019-05-17T01:49:13.117Z,99139.94
2019-05-17T01:51:43.247Z,99139.02
2019-05-17T01:54:13.264Z,99145.49
2019-05-17T01:56:43.306Z,99136.02
2019-05-17T02:02:26.900Z,99128.70
2019-05-17T02:04:56.940Z,99133.42
2019-05-17T02:07:28.105Z,99127.69
2019-05-17T02:10:16.731Z,99134.06
2019-05-17T02:12:33.595Z,99129.95
2019-05-17T02:15:03.667Z,99129.33
2019-05-17T02:17:33.505Z,99118.22
2019-05-17T02:20:03.534Z,99121.62
2019-05-17T02:22:33.433Z,99116.36
2019-05-17T02:25:03.731Z,99121.70
2019-05-17T02:33:43.227Z,99105.65
2019-05-17T02:36:14.208Z,99103.18
2019-05-17T02:38:55.393Z,99099.67
2019-05-17T02:41:27.941Z,99093.37
2019-05-17T02:43:57.765Z,99097.50
2019-05-17T02:46:27.537Z,99100.41
2019-05-17T02:48:57.277Z,99098.02
2019-05-17T02:52:06.572Z,99102.02
2019-05-17T02:54:38.943Z,99092.16
2019-05-17T02:57:08.843Z,99095.63
2019-05-17T03:02:29.019Z,99090.82
2019-05-17T03:05:17.857Z,99086.42
2019-05-17T03:10:29.433Z,99090.35
2019-05-17T03:12:59.257Z,99087.23
2019-05-17T03:15:32.191Z,99082.61
2019-05-17T03:18:03.647Z,99085.69
2019-05-17T03:20:36.019Z,99087.54
2019-05-17T03:23:06.193Z,99085.27
2019-05-17T03:25:35.991Z,99087.73
2019-05-17T03:28:06.740Z,99082.41
2019-05-17T03:30:37.707Z,99083.55
2019-05-17T03:33:09.105Z,99088.08
2019-05-17T03:35:45.198Z,99083.03
2019-05-17T03:38:14.128Z,99087.88
2019-05-17T03:43:14.491Z,99081.91
2019-05-17T03:46:03.335Z,99085.30
2019-05-17T03:48:33.582Z,99085.75
2019-05-17T03:51:07.361Z,99088.34
2019-05-17T03:54:32.387Z,99087.18
2019-05-17T03:59:52.603Z,99084.11
2019-05-17T04:02:24.016Z,99085.45
2019-05-17T04:05:14.768Z,99083.90
2019-05-17T04:07:44.922Z,99077.20
2019-05-17T04:12:59.433Z,99072.68
2019-05-17T04:15:32.642Z,99068.66
2019-05-17T04:18:23.204Z,99073.28
2019-05-17T04:21:12.553Z,99070.60
2019-05-17T04:23:42.916Z,99067.92
2019-05-17T04:26:27.552Z,99072.45
2019-05-17T04:28:56.794Z,99067.92
2019-05-17T04:31:30.478Z,99071.31
2019-05-17T04:33:58.308Z,99071.31
2019-05-17T04:36:47.263Z,99077.91
2019-05-17T04:39:36.134Z,99078.00
2019-05-17T04:48:43.528Z,99078.73
2019-05-17T04:52:06.202Z,99079.86
2019-05-17T04:54:49.052Z,99074.58
2019-05-17T05:00:34.142Z,99077.44
2019-05-17T05:03:04.081Z,99076.88
2019-05-17T05:05:46.913Z,99078.36
2019-05-17T05:08:28.882Z,99081.03
2019-05-17T05:10:58.818Z,99075.20
2019-05-17T05:13:28.636Z,99081.80
2019-05-17T05:15:58.468Z,99075.20
2019-05-17T05:18:52.085Z,99079.13
2019-05-17T05:24:31.484Z,99082.24
2019-05-17T05:27:02.569Z,99084.19
2019-05-17T05:29:34.897Z,99082.44
2019-05-17T05:32:04.789Z,99073.16
2019-05-17T05:37:35.402Z,99071.67
2019-05-17T05:40:12.341Z,99074.30
2019-05-17T05:42:43.407Z,99076.98
2019-05-17T05:45:22.926Z,99078.13
2019-05-17T05:47:55.045Z,99076.57
2019-05-17T05:50:43.936Z,99080.36
2019-05-17T05:53:35.008Z,99056.98
2019-05-17T05:56:07.147Z,99083.05
2019-05-17T05:59:37.808Z,99078.41
2019-05-17T06:02:04.326Z,99080.27
2019-05-17T06:04:34.288Z,99082.12
2019-05-17T06:07:04.202Z,99062.15
2019-05-17T06:09:34.159Z,99083.23
2019-05-17T06:14:55.127Z,99084.28
2019-05-17T06:17:24.980Z,99081.78
2019-05-17T06:20:13.682Z,99082.48
2019-05-17T06:22:46.950Z,99084.75
2019-05-17T06:31:33.306Z,99085.73
2019-05-17T06:34:15.793Z,99077.78
2019-05-17T06:36:57.516Z,99088.52
2019-05-17T06:45:41.671Z,99083.67
2019-05-17T06:49:02.954Z,99090.77
2019-05-17T06:51:05.702Z,99080.77
2019-05-17T06:53:35.811Z,99081.73
2019-05-17T06:56:05.633Z,99081.45
2019-05-17T06:58:37.227Z,99081.45
2019-05-17T07:01:26.120Z,99081.69
2019-05-17T07:04:15.098Z,99069.48
2019-05-17T07:09:27.731Z,99076.83
2019-05-17T07:12:13.618Z,99075.41
2019-05-17T07:14:52.389Z,99074.84
2019-05-17T07:17:44.795Z,99077.84
2019-05-17T07:20:14.643Z,99081.17
2019-05-17T07:23:03.526Z,99088.90
2019-05-17T07:25:33.384Z,99080.62
2019-05-17T07:28:10.118Z,99077.29
2019-05-17T07:30:59.606Z,99075.67
2019-05-17T07:33:39.872Z,99074.45
2019-05-17T07:36:30.664Z,99073.90
2019-05-17T07:39:12.110Z,99073.82
2019-05-17T07:41:50.859Z,99074.93
2019-05-17T07:44:44.059Z,99072.76
2019-05-17T07:47:25.827Z,99058.97
2019-05-17T07:50:20.073Z,99071.56
2019-05-17T07:56:19.984Z,99060.89
2019-05-17T07:59:12.850Z,99062.08
2019-05-17T08:01:42.692Z,99064.33
2019-05-17T08:04:33.365Z,99059.25
2019-05-17T08:07:03.214Z,99057.78
2019-05-17T08:09:52.195Z,99057.78
2019-05-17T08:12:41.247Z,99052.72
2019-05-17T08:18:20.394Z,99053.34
2019-05-17T08:21:10.495Z,99050.94
2019-05-17T08:23:40.348Z,99047.09
2019-05-17T08:26:10.715Z,99030.36
2019-05-17T08:31:43.927Z,99036.22
2019-05-17T08:34:13.907Z,99040.53
2019-05-17T08:37:23.184Z,99032.52
2019-05-17T08:40:15.026Z,99036.03
2019-05-17T08:42:43.820Z,99027.00
2019-05-17T08:45:31.890Z,99026.94
2019-05-17T08:51:34.210Z,99025.19
2019-05-17T08:57:26.106Z,99018.69
2019-05-17T08:59:56.153Z,99017.69
2019-05-17T09:05:47.235Z,99005.33
2019-05-17T09:08:17.288Z,99007.73
2019-05-17T09:11:00.212Z,99004.11
2019-05-17T09:13:57.278Z,99000.69
2019-05-17T09:16:52.799Z,98996.11
2019-05-17T09:21:54.469Z,98998.02
2019-05-17T09:25:03.789Z,98991.22
2019-05-17T09:27:34.475Z,98997.61
2019-05-17T09:30:25.700Z,98993.41
2019-05-17T09:36:30.352Z,98989.20
2019-05-17T09:42:33.645Z,98988.67
2019-05-17T09:45:05.456Z,98989.19
2019-05-17T09:53:36.376Z,98990.50
2019-05-17T09:56:27.166Z,98980.73
2019-05-17T10:05:20.176Z,98978.20
2019-05-17T10:08:11.051Z,98978.05
2019-05-17T10:11:08.610Z,98978.66
2019-05-17T10:13:37.301Z,98970.41
2019-05-17T10:16:10.187Z,98973.46
2019-05-17T10:18:42.265Z,98971.04
2019-05-17T10:21:46.075Z,98966.14
2019-05-17T10:27:11.000Z,98961.51
2019-05-17T10:29:31.088Z,98953.44
2019-05-17T10:32:01.833Z,98951.64
2019-05-17T10:34:32.500Z,98950.56
2019-05-17T10:37:22.055Z,98946.44
2019-05-17T10:40:37.115Z,98950.14
2019-05-17T10:43:46.422Z,98943.96
2019-05-17T10:47:30.051Z,98945.70
2019-05-17T10:49:58.621Z,98945.16
2019-05-17T10:53:13.391Z,98952.47
2019-05-17T10:59:31.606Z,98945.73
2019-05-17T11:02:22.464Z,98942.42
2019-05-17T11:09:31.671Z,98940.89
2019-05-17T11:15:10.958Z,98938.30
2019-05-17T11:26:53.240Z,98925.85
2019-05-17T11:29:35.881Z,98921.50
2019-05-17T11:33:12.664Z,98917.45
2019-05-17T11:54:03.432Z,98904.31
2019-05-17T11:57:12.096Z,98911.84
2019-05-17T12:03:10.394Z,98895.30
2019-05-17T12:05:52.792Z,98898.02
2019-05-17T12:11:57.404Z,98900.72
2019-05-17T12:15:05.042Z,98894.98
2019-05-17T12:18:11.396Z,98886.95
2019-05-17T12:26:59.867Z,98882.78
2019-05-17T12:30:05.364Z,98863.75
2019-05-17T12:32:57.081Z,98880.78
2019-05-17T12:36:07.986Z,98873.80
2019-05-17T12:39:20.134Z,98861.55
2019-05-17T12:48:52.477Z,98878.91
2019-05-17T12:55:08.756Z,98878.44
2019-05-17T13:01:36.313Z,98865.09
2019-05-17T13:11:23.164Z,98871.22
2019-05-17T13:17:59.241Z,98874.15
2019-05-17T13:24:20.897Z,98877.65
2019-05-17T13:34:27.322Z,98873.81
2019-05-17T13:36:52.269Z,98865.35
2019-05-17T13:39:45.497Z,98860.87
2019-05-17T13:46:10.350Z,98856.38
2019-05-17T13:48:58.365Z,98857.85
2019-05-17T13:52:13.376Z,98851.81
2019-05-17T13:55:16.246Z,98861.08
2019-05-17T14:04:29.546Z,98847.06
2019-05-17T14:07:24.475Z,98857.17
2019-05-17T14:10:32.117Z,98842.67
2019-05-17T14:13:41.448Z,98816.53
2019-05-17T14:16:53.254Z,98846.19
2019-05-17T14:23:27.524Z,98845.39
2019-05-17T14:32:37.871Z,98845.73
2019-05-17T14:48:27.428Z,98833.98
2019-05-17T14:51:07.049Z,98818.30
2019-05-17T14:54:39.121Z,98818.30
2019-05-17T14:57:08.178Z,98827.09
2019-05-17T15:00:15.223Z,98821.19
2019-05-17T15:03:25.954Z,98818.17
2019-05-17T15:22:20.456Z,98804.71
2019-05-17T15:25:13.800Z,98804.71
2019-05-17T15:28:02.553Z,98806.36
2019-05-17T15:31:45.262Z,98804.14
2019-05-17T15:34:37.104Z,98797.10
2019-05-17T15:37:47.650Z,98793.22
2019-05-17T15:40:29.861Z,98797.36
2019-05-17T15:43:29.853Z,98795.67
2019-05-17T15:47:13.175Z,98792.59
2019-05-17T15:49:53.794Z,98787.95
2019-05-17T15:56:21.690Z,98782.31
2019-05-17T15:59:33.189Z,98778.45
2019-05-17T16:06:01.207Z,98770.88
2019-05-17T16:11:37.113Z,98774.19
2019-05-17T16:26:44.988Z,98752.46
2019-05-17T16:29:55.439Z,98758.44
2019-05-17T16:36:00.308Z,98753.80
2019-05-17T16:42:11.202Z,98750.81
2019-05-17T16:45:09.969Z,98745.14
2019-05-17T16:48:23.197Z,98750.19
2019-05-17T16:51:25.248Z,98749.92
2019-05-17T17:06:57.833Z,98756.32
2019-05-17T17:13:32.379Z,98748.22
2019-05-17T17:16:11.257Z,98747.31
2019-05-17T17:22:24.654Z,98738.75
2019-05-17T17:25:36.018Z,98742.45
2019-05-17T17:32:21.794Z,98743.39
2019-05-17T17:36:13.057Z,98743.25
2019-05-17T17:48:19.129Z,98742.36
2019-05-17T17:54:29.703Z,98746.61
2019-05-17T18:00:58.036Z,98734.59
2019-05-17T18:04:03.640Z,98726.83
2019-05-17T18:10:13.704Z,98730.70
2019-05-17T18:13:17.800Z,98731.33
2019-05-17T18:16:23.569Z,98732.25
2019-05-17T18:19:32.029Z,98731.45
2019-05-17T18:22:43.503Z,98733.91
2019-05-17T18:29:00.782Z,98738.31
2019-05-17T18:32:40.116Z,98741.52
2019-05-17T18:34:55.743Z,98735.02
2019-05-17T18:40:53.519Z,98741.27
2019-05-17T18:50:25.283Z,98746.27
2019-05-17T18:53:30.431Z,98743.30
2019-05-17T18:56:11.585Z,98751.09
2019-05-17T19:02:03.590Z,98756.44
2019-05-17T19:05:08.098Z,98762.92
2019-05-17T19:08:05.761Z,98767.47
2019-05-17T19:11:05.132Z,98763.84
2019-05-17T19:29:35.093Z,98768.27
2019-05-17T19:32:48.285Z,98773.09
2019-05-17T19:36:04.169Z,98772.13
2019-05-17T19:42:06.138Z,98772.58
2019-05-17T19:45:01.009Z,98778.93
2019-05-17T19:51:39.776Z,98777.49
2019-05-17T19:54:34.418Z,98772.78
2019-05-17T20:03:57.188Z,98772.80
2019-05-17T20:07:04.662Z,98776.02
2019-05-17T20:10:16.683Z,98770.14
2019-05-17T20:12:53.746Z,98771.20
2019-05-17T20:16:08.520Z,98767.05
2019-05-17T20:23:37.141Z,98769.13
2019-05-17T20:25:40.946Z,98773.45
2019-05-17T20:34:52.162Z,98777.02
2019-05-17T20:38:01.123Z,98772.16
2019-05-17T20:41:04.103Z,98767.05
2019-05-17T20:43:59.377Z,98772.22
2019-05-17T20:56:57.111Z,98777.39
2019-05-17T21:03:01.343Z,98781.44
2019-05-17T21:08:46.170Z,98773.77
2019-05-17T21:11:52.031Z,98771.09
2019-05-17T21:18:02.020Z,98774.98
2019-05-17T21:20:59.359Z,98774.16
2019-05-17T21:26:47.646Z,98783.27
2019-05-17T21:30:41.807Z,98783.25
2019-05-17T21:38:19.733Z,98805.21
2019-05-17T21:41:08.543Z,98801.12
2019-05-17T21:52:03.256Z,98790.97
2019-05-17T21:54:51.930Z,98802.22
2019-05-17T21:57:43.040Z,98795.86
2019-05-17T22:03:22.214Z,98804.72
2019-05-17T22:06:29.910Z,98802.81
2019-05-17T22:14:55.383Z,98785.23
2019-05-17T22:17:44.373Z,98807.19
2019-05-17T22:23:14.923Z,98796.31
2019-05-17T22:26:03.895Z,98801.33
2019-05-17T22:28:33.714Z,98802.55
2019-05-17T22:34:00.056Z,98803.77
2019-05-17T22:36:17.979Z,98805.05
2019-05-17T22:44:17.783Z,98803.47
2019-05-17T22:49:57.807Z,98792.53
2019-05-17T22:53:07.912Z,98773.19
2019-05-17T22:55:53.554Z,98788.64
2019-05-17T22:58:43.940Z,98796.73
2019-05-17T23:01:15.656Z,98790.97
2019-05-17T23:06:44.832Z,98801.22
2019-05-17T23:10:03.347Z,98810.89
2019-05-17T23:12:33.198Z,98816.86
2019-05-17T23:19:19.335Z,98823.05
2019-05-17T23:22:14.619Z,98810.82
2019-05-17T23:31:17.343Z,98796.97
2019-05-17T23:33:47.275Z,98807.22
2019-05-17T23:36:37.176Z,98801.34
2019-05-17T23:39:12.487Z,98807.44
2019-05-17T23:41:43.143Z,98799.64
2019-05-17T23:44:32.975Z,98806.16
2019-05-17T23:47:16.860Z,98800.72
2019-05-17T23:49:57.920Z,98812.75
2019-05-17T23:52:28.689Z,98797.34
2019-05-17T23:55:00.734Z,98802.72
2019-05-17T23:57:31.569Z,98779.54
